Alhambra, California
Current Conditions -  °F | °C
As of 10:45 AM on Tuesday 21 Oct 2014 (Local Time) from KEMT Reporting Station
Haze Haze  
Wind Chill: 20°   Ceiling: Unl
Heat Index: 20°   Visibility: 3mi
Dew Point: 15°   Wind: 3mph
Humidity: 73%   Direction: 120°ESE
Pressure: 29.94"   Gusts: NA
Location:  34.09°N, 118.12°W
Report Text: KEMT 211745Z 12003KT 3SM HZ SCT012 20/15 A2994
Loading
Personal Weather Stations






























Interactive Weather Map
Tropical Storm Tracking
New forecast layout! Learn more

10-Day Weather Forecast

Advertisements
Track Severe Weather on mobile